Terminal Aerodrome Forecast
Issued by NWS Quad Cities IA IL

Home | Current Version | Previous Version | Text Only | Print | Product List | Glossary On
Versions: 1 2 3 4 5 6 7 8 9 10 11 12 13 14 15 16 17 18 19 20 21 22 23 24 25 26
284
FTUS43 KDVN 241744
TAFDBQ
TAF
KDBQ 241744Z 2418/2518 02009KT P6SM VCSH BKN017 OVC025
     FM242100 01010KT P6SM OVC022
     FM250100 01007KT P6SM BKN025
     FM250600 01007KT 4SM BR OVC010
     FM251600 35005KT P6SM BKN018=

USA.gov is the U.S. government's official web portal to all federal, state and local government web resources and services.